createdAt,value
2023-01-13T00:00:23.294Z,99829.94
2023-01-13T00:02:51.207Z,99831.66
2023-01-13T00:05:20.257Z,99827.19
2023-01-13T00:07:49.757Z,99836.53
2023-01-13T00:10:18.255Z,99810.06
2023-01-13T00:12:46.427Z,99811.97
2023-01-13T00:15:14.501Z,99799.56
2023-01-13T00:17:42.385Z,99799.56
2023-01-13T00:20:12.538Z,99785.50
2023-01-13T00:22:40.334Z,99781.88
2023-01-13T00:25:10.373Z,99775.72
2023-01-13T00:27:38.198Z,99781.97
2023-01-13T00:30:07.741Z,99775.88
2023-01-13T00:32:35.748Z,99765.50
2023-01-13T00:35:03.827Z,99772.56
2023-01-13T00:37:31.700Z,99760.09
2023-01-13T00:40:00.638Z,99768.00
2023-01-13T00:42:47.192Z,99765.22
2023-01-13T00:45:15.680Z,99777.25
2023-01-13T00:47:43.589Z,99780.69
2023-01-13T00:50:12.262Z,99772.19
2023-01-13T00:52:42.022Z,99784.56
2023-01-13T00:55:10.477Z,99783.59
2023-01-13T00:57:40.178Z,99784.56
2023-01-13T01:00:09.423Z,99776.56
2023-01-13T01:02:37.373Z,99798.66
2023-01-13T01:05:05.798Z,99790.66
2023-01-13T01:07:33.654Z,99784.47
2023-01-13T01:10:01.487Z,99794.09
2023-01-13T01:12:29.748Z,99789.59
2023-01-13T01:14:59.059Z,99786.94
2023-01-13T01:17:26.915Z,99772.78
2023-01-13T01:19:54.819Z,99780.47
2023-01-13T01:22:22.679Z,99776.84
2023-01-13T01:24:50.450Z,99770.69
2023-01-13T01:27:18.415Z,99761.84
2023-01-13T01:29:46.396Z,99759.16
2023-01-13T01:32:15.785Z,99768.88
2023-01-13T01:34:43.745Z,99767.94
2023-01-13T01:37:11.633Z,99766.81
2023-01-13T01:39:39.455Z,99764.91
2023-01-13T01:42:24.811Z,99760.44
2023-01-13T01:45:01.147Z,99745.47
2023-01-13T01:47:33.416Z,99756.03
2023-01-13T01:50:04.233Z,99756.72
2023-01-13T01:52:37.040Z,99751.56
2023-01-13T01:55:09.889Z,99739.38
2023-01-13T01:57:43.612Z,99737.66
2023-01-13T02:00:12.743Z,99729.78
2023-01-13T02:02:43.033Z,99738.69
2023-01-13T02:05:11.255Z,99749.19
2023-01-13T02:07:41.284Z,99751.25
2023-01-13T02:10:12.299Z,99747.16
2023-01-13T02:12:41.827Z,99735.63
2023-01-13T02:15:12.654Z,99737.63
2023-01-13T02:17:58.923Z,99738.69
2023-01-13T02:20:54.054Z,99739.44
2023-01-13T02:24:21.730Z,99755.44
2023-01-13T02:27:31.897Z,99751.03
2023-01-13T02:30:26.400Z,99746.47
2023-01-13T02:33:06.455Z,99740.22
2023-01-13T02:35:41.788Z,99721.56
2023-01-13T02:38:12.423Z,99712.63
2023-01-13T02:40:47.857Z,99693.00
2023-01-13T02:43:40.073Z,99686.66
2023-01-13T02:46:15.765Z,99656.66
2023-01-13T02:48:45.898Z,99629.44
2023-01-13T02:51:18.893Z,99629.44
2023-01-13T02:53:53.211Z,99606.41
2023-01-13T02:56:24.337Z,99588.81
2023-01-13T02:58:54.955Z,99588.72
2023-01-13T03:01:24.368Z,99582.63
2023-01-13T03:03:52.249Z,99586.16
2023-01-13T03:06:41.981Z,99575.78
2023-01-13T03:09:16.119Z,99587.28
2023-01-13T03:11:52.077Z,99594.22
2023-01-13T03:14:31.589Z,99580.06
2023-01-13T03:17:12.225Z,99604.72
2023-01-13T03:19:45.221Z,99588.72
2023-01-13T03:22:22.393Z,99577.88
2023-01-13T03:24:54.073Z,99565.50
2023-01-13T03:27:27.873Z,99571.50
2023-01-13T03:30:00.190Z,99574.06
2023-01-13T03:32:33.130Z,99570.63
2023-01-13T03:35:08.823Z,99566.28
2023-01-13T03:37:40.565Z,99569.41
2023-01-13T03:40:13.874Z,99564.09
2023-01-13T03:43:05.104Z,99566.63
2023-01-13T03:45:34.093Z,99550.63
2023-01-13T03:48:07.809Z,99555.78
2023-01-13T03:50:40.991Z,99549.59
2023-01-13T03:53:12.619Z,99542.34
2023-01-13T03:55:45.204Z,99536.00
2023-01-13T03:58:18.991Z,99540.28
2023-01-13T04:00:52.543Z,99533.88
2023-01-13T04:03:29.601Z,99520.44
2023-01-13T04:06:02.002Z,99517.91
2023-01-13T04:08:30.915Z,99534.66
2023-01-13T04:11:03.956Z,99523.88
2023-01-13T04:13:36.447Z,99532.75
2023-01-13T04:16:07.306Z,99521.13
2023-01-13T04:18:40.341Z,99507.13
2023-01-13T04:21:09.126Z,99499.34
2023-01-13T04:23:36.942Z,99491.84
2023-01-13T04:26:04.831Z,99492.22
2023-01-13T04:28:33.505Z,99493.28
2023-01-13T04:31:01.386Z,99522.69
2023-01-13T04:33:29.279Z,99495.41
2023-01-13T04:35:58.553Z,99504.34
2023-01-13T04:38:26.377Z,99506.91
2023-01-13T04:40:54.152Z,99493.88
2023-01-13T04:43:21.942Z,99499.09
2023-01-13T04:45:49.783Z,99508.97
2023-01-13T04:48:17.759Z,99471.22
2023-01-13T04:50:45.539Z,99480.28
2023-01-13T04:53:14.827Z,99496.16
2023-01-13T04:55:44.347Z,99493.50
2023-01-13T04:58:12.496Z,99487.50
2023-01-13T05:00:40.709Z,99492.09
2023-01-13T05:03:08.562Z,99496.25
2023-01-13T05:05:36.572Z,99486.56
2023-01-13T05:08:04.877Z,99484.84
2023-01-13T05:10:34.209Z,99471.81
2023-01-13T05:13:19.335Z,99471.16
2023-01-13T05:16:06.592Z,99482.75
2023-01-13T05:18:34.728Z,99494.16
2023-01-13T05:21:02.492Z,99501.09
2023-01-13T05:23:48.187Z,99500.34
2023-01-13T05:26:17.427Z,99520.22
2023-01-13T05:28:45.324Z,99518.53
2023-01-13T05:31:14.979Z,99543.91
2023-01-13T05:33:43.091Z,99546.69
2023-01-13T05:36:11.241Z,99558.88
2023-01-13T05:38:39.149Z,99590.25
2023-01-13T05:41:24.410Z,99570.84
2023-01-13T05:43:53.604Z,99583.41
2023-01-13T05:46:21.463Z,99613.56
2023-01-13T05:48:49.385Z,99612.03
2023-01-13T05:51:17.256Z,99612.31
2023-01-13T05:53:45.090Z,99619.16
2023-01-13T05:56:13.045Z,99632.09
2023-01-13T05:58:40.985Z,99632.44
2023-01-13T06:01:11.339Z,99649.47
2023-01-13T06:03:39.581Z,99654.09
2023-01-13T06:06:09.175Z,99665.91
2023-01-13T06:08:39.601Z,99679.31
2023-01-13T06:11:08.052Z,99661.78
2023-01-13T06:13:35.935Z,99676.91
2023-01-13T06:16:04.013Z,99671.88
2023-01-13T06:18:33.244Z,99674.03
2023-01-13T06:21:01.238Z,99663.53
2023-01-13T06:23:32.030Z,99688.44
2023-01-13T06:26:05.291Z,99708.03
2023-01-13T06:28:33.369Z,99710.00
2023-01-13T06:31:04.326Z,99734.66
2023-01-13T06:33:37.957Z,99730.06
2023-01-13T06:36:13.881Z,99742.44
2023-01-13T06:38:47.810Z,99730.84
2023-01-13T06:41:16.136Z,99738.75
2023-01-13T06:43:43.083Z,99755.41
2023-01-13T06:46:11.233Z,99781.78
2023-01-13T06:48:40.383Z,99791.47
2023-01-13T06:51:08.083Z,99807.44
2023-01-13T06:53:35.971Z,99806.56
2023-01-13T06:56:03.823Z,99807.88
2023-01-13T06:58:31.668Z,99812.41
2023-01-13T07:01:01.740Z,99825.13
2023-01-13T07:03:30.010Z,99820.16
2023-01-13T07:06:00.466Z,99821.84
2023-01-13T07:08:28.456Z,99819.38
2023-01-13T07:10:56.267Z,99811.56
2023-01-13T07:13:41.945Z,99828.47
2023-01-13T07:16:10.677Z,99852.41
2023-01-13T07:18:38.645Z,99848.13
2023-01-13T07:21:09.841Z,99842.44
2023-01-13T07:23:39.520Z,99864.91
2023-01-13T07:26:07.934Z,99888.00
2023-01-13T07:28:36.000Z,99909.34
2023-01-13T07:31:04.617Z,99926.31
2023-01-13T07:33:33.510Z,99940.41
2023-01-13T07:36:03.096Z,99948.47
2023-01-13T07:38:33.513Z,99961.53
2023-01-13T07:41:23.018Z,99971.06
2023-01-13T07:43:50.253Z,99996.59
2023-01-13T07:46:18.305Z,100002.69
2023-01-13T07:48:48.355Z,100027.19
2023-01-13T07:51:16.378Z,100029.00
2023-01-13T07:53:45.639Z,100044.84
2023-01-13T07:56:13.558Z,100045.75
2023-01-13T07:58:41.344Z,100056.22
2023-01-13T08:01:10.012Z,100064.81
2023-01-13T08:03:37.846Z,100063.16
2023-01-13T08:06:05.954Z,100057.84
2023-01-13T08:08:34.006Z,100049.00
2023-01-13T08:11:04.702Z,100070.97
2023-01-13T08:13:32.676Z,100061.22
2023-01-13T08:16:02.801Z,100066.53
2023-01-13T08:18:32.108Z,100055.13
2023-01-13T08:21:03.768Z,100066.53
2023-01-13T08:23:32.118Z,100061.06
2023-01-13T08:26:03.559Z,100034.25
2023-01-13T08:28:31.363Z,99997.19
2023-01-13T08:31:00.790Z,99968.75
2023-01-13T08:33:28.807Z,99941.09
2023-01-13T08:35:57.008Z,99896.88
2023-01-13T08:38:25.539Z,99872.94
2023-01-13T08:40:53.565Z,99842.63
2023-01-13T08:43:22.865Z,99804.78
2023-01-13T08:45:58.290Z,99784.25
2023-01-13T08:48:26.629Z,99761.25
2023-01-13T08:50:54.823Z,99741.69
2023-01-13T08:53:22.652Z,99733.78
2023-01-13T08:55:50.490Z,99737.91
2023-01-13T08:58:18.563Z,99709.56
2023-01-13T09:00:47.682Z,99676.75
2023-01-13T09:03:15.595Z,99632.66
2023-01-13T09:05:44.327Z,99633.69
2023-01-13T09:08:12.227Z,99601.94
2023-01-13T09:10:40.495Z,99597.47
2023-01-13T09:13:13.751Z,99574.28
2023-01-13T09:15:43.676Z,99562.81
2023-01-13T09:18:13.375Z,99537.13
2023-01-13T09:20:41.657Z,99543.13
2023-01-13T09:23:11.335Z,99548.94
2023-01-13T09:25:40.684Z,99539.06
2023-01-13T09:28:09.222Z,99560.56
2023-01-13T09:30:38.326Z,99524.34
2023-01-13T09:33:23.605Z,99501.88
2023-01-13T09:35:52.866Z,99491.69
2023-01-13T09:38:20.700Z,99490.47
2023-01-13T09:40:50.708Z,99494.38
2023-01-13T09:43:41.336Z,99451.47
2023-01-13T09:46:32.704Z,99408.88
2023-01-13T09:49:03.624Z,99408.66
2023-01-13T09:51:39.210Z,99395.34
2023-01-13T09:54:16.182Z,99362.53
2023-01-13T09:56:44.259Z,99357.97
2023-01-13T09:59:13.225Z,99334.75
2023-01-13T10:01:51.750Z,99329.44
2023-01-13T10:04:19.894Z,99332.84
2023-01-13T10:06:53.156Z,99284.78
2023-01-13T10:09:24.062Z,99304.84
2023-01-13T10:12:11.252Z,99277.25
2023-01-13T10:14:43.306Z,99240.50
2023-01-13T10:17:20.136Z,99238.78
2023-01-13T10:19:52.571Z,99229.63
2023-01-13T10:22:34.422Z,99188.94
2023-01-13T10:25:21.711Z,99103.81
2023-01-13T10:27:51.746Z,99153.25
2023-01-13T10:30:22.807Z,99161.44
2023-01-13T10:32:55.893Z,99192.88
2023-01-13T10:35:49.638Z,99199.50
2023-01-13T10:38:21.036Z,99172.72
2023-01-13T10:40:50.976Z,99166.44
2023-01-13T10:43:18.872Z,99233.94
2023-01-13T10:45:57.110Z,99247.69
2023-01-13T10:48:32.516Z,99181.56
2023-01-13T10:51:10.559Z,99160.34
2023-01-13T10:53:47.671Z,99151.16
2023-01-13T10:56:19.136Z,99108.94
2023-01-13T10:58:47.787Z,99051.13
2023-01-13T11:01:25.799Z,99034.16
2023-01-13T11:03:55.168Z,99058.88
2023-01-13T11:06:25.294Z,99060.78
2023-01-13T11:08:58.188Z,99037.88
2023-01-13T11:11:42.660Z,99029.03
2023-01-13T11:14:36.878Z,99033.41
2023-01-13T11:17:16.094Z,99000.97
2023-01-13T11:19:49.654Z,98950.34
2023-01-13T11:22:22.809Z,98910.25
2023-01-13T11:24:55.329Z,98863.97
2023-01-13T11:27:34.322Z,98858.75
2023-01-13T11:30:11.716Z,98824.59
2023-01-13T11:33:00.815Z,98808.94
2023-01-13T11:35:30.693Z,98811.25
2023-01-13T11:38:03.294Z,98828.44
2023-01-13T11:40:38.162Z,98892.56
2023-01-13T11:43:17.929Z,98967.63
2023-01-13T11:45:51.061Z,98948.91
2023-01-13T11:48:23.951Z,98929.19
2023-01-13T11:51:00.369Z,98882.22
2023-01-13T11:53:45.292Z,98822.81
2023-01-13T11:56:30.284Z,98853.47
2023-01-13T11:59:18.608Z,98887.44
2023-01-13T12:02:01.326Z,98793.19
2023-01-13T12:04:35.340Z,98698.63
2023-01-13T12:07:15.089Z,98736.81
2023-01-13T12:09:56.210Z,98732.59
2023-01-13T12:12:39.272Z,98608.44
2023-01-13T12:15:46.675Z,98603.03
2023-01-13T12:18:43.290Z,98595.28
2023-01-13T12:21:20.782Z,98580.38
2023-01-13T12:24:00.948Z,98685.16
2023-01-13T12:26:33.744Z,98568.16
2023-01-13T12:29:07.776Z,98579.66
2023-01-13T12:31:38.434Z,98611.16
2023-01-13T12:34:27.764Z,98564.75
2023-01-13T12:37:04.747Z,98583.41
2023-01-13T12:39:43.417Z,98520.25
2023-01-13T12:42:36.366Z,98480.59
2023-01-13T12:45:21.794Z,98503.47
2023-01-13T12:47:49.753Z,98446.84
2023-01-13T12:50:42.989Z,98396.88
2023-01-13T12:53:32.061Z,98423.19
2023-01-13T12:56:34.804Z,98479.03
2023-01-13T12:59:34.672Z,98510.72
2023-01-13T13:02:38.111Z,98447.66
2023-01-13T13:05:37.548Z,98403.84
2023-01-13T13:08:11.876Z,98419.94
2023-01-13T13:10:44.220Z,98430.25
2023-01-13T13:13:39.357Z,98402.38
2023-01-13T13:16:37.560Z,98414.47
2023-01-13T13:19:56.030Z,98349.06
2023-01-13T13:22:44.546Z,98320.03
2023-01-13T13:25:30.637Z,98297.28
2023-01-13T13:28:13.828Z,98351.03
2023-01-13T13:30:50.643Z,98284.25
2023-01-13T13:33:36.935Z,98292.94
2023-01-13T13:36:16.379Z,98352.00
2023-01-13T13:39:20.072Z,98318.09
2023-01-13T13:42:08.998Z,98325.81
2023-01-13T13:44:57.716Z,98325.25
2023-01-13T13:47:25.544Z,98362.78
2023-01-13T13:49:55.462Z,98280.59
2023-01-13T13:52:29.948Z,98289.56
2023-01-13T13:55:10.372Z,98323.19
2023-01-13T13:57:42.502Z,98360.66
2023-01-13T14:00:23.076Z,98370.09
2023-01-13T14:02:54.046Z,98404.72
2023-01-13T14:05:24.451Z,98389.50
2023-01-13T14:07:59.457Z,98408.63
2023-01-13T14:10:33.773Z,98432.72
2023-01-13T14:13:03.994Z,98428.34
2023-01-13T14:15:35.175Z,98438.16
2023-01-13T14:18:06.031Z,98439.97
2023-01-13T14:20:35.612Z,98458.63
2023-01-13T14:23:05.894Z,98460.28
2023-01-13T14:25:39.625Z,98445.41
2023-01-13T14:28:21.750Z,98447.59
2023-01-13T14:30:51.236Z,98374.72
2023-01-13T14:33:23.249Z,98427.75
2023-01-13T14:36:15.771Z,98361.28
2023-01-13T14:38:45.063Z,98356.56
2023-01-13T14:41:22.801Z,98317.41
2023-01-13T14:43:54.228Z,98351.88
2023-01-13T14:46:25.540Z,98346.53
2023-01-13T14:49:00.984Z,98333.75
2023-01-13T14:51:31.427Z,98339.66
2023-01-13T14:53:59.627Z,98282.19
2023-01-13T14:56:40.922Z,98247.44
2023-01-13T14:59:55.399Z,98215.63
2023-01-13T15:02:44.057Z,98208.63
2023-01-13T15:05:47.459Z,98197.47
2023-01-13T15:08:28.831Z,98176.91
2023-01-13T15:11:00.079Z,98223.34
2023-01-13T15:13:35.786Z,98174.38
2023-01-13T15:16:06.037Z,98173.91
2023-01-13T15:18:35.722Z,98199.97
2023-01-13T15:21:04.261Z,98216.88
2023-01-13T15:23:32.065Z,98198.53
2023-01-13T15:26:01.550Z,98226.09
2023-01-13T15:28:32.155Z,98213.16
2023-01-13T15:31:01.892Z,98209.94
2023-01-13T15:33:29.767Z,98246.94
2023-01-13T15:35:57.785Z,98248.41
2023-01-13T15:38:25.858Z,98265.81
2023-01-13T15:40:54.260Z,98249.00
2023-01-13T15:43:40.755Z,98258.56
2023-01-13T15:46:34.895Z,98229.63
2023-01-13T15:49:12.855Z,98210.06
2023-01-13T15:51:41.154Z,98281.66
2023-01-13T15:54:08.968Z,98205.00
2023-01-13T15:56:38.287Z,98208.72
2023-01-13T15:59:06.373Z,98235.22
2023-01-13T16:01:35.822Z,98237.53
2023-01-13T16:04:04.060Z,98268.50
2023-01-13T16:06:33.304Z,98297.41
2023-01-13T16:09:02.951Z,98324.03
2023-01-13T16:11:31.453Z,98350.38
2023-01-13T16:13:59.356Z,98319.06
2023-01-13T16:16:29.504Z,98290.28
2023-01-13T16:18:58.801Z,98340.84
2023-01-13T16:21:26.680Z,98421.50
2023-01-13T16:23:54.826Z,98436.50
2023-01-13T16:26:24.887Z,98450.88
2023-01-13T16:28:54.913Z,98489.09
2023-01-13T16:31:30.477Z,98465.41
2023-01-13T16:34:00.708Z,98459.22
2023-01-13T16:36:29.924Z,98493.94
2023-01-13T16:38:58.426Z,98540.00
2023-01-13T16:41:26.381Z,98521.75
2023-01-13T16:43:54.626Z,98542.28
2023-01-13T16:46:25.646Z,98550.03
2023-01-13T16:48:54.893Z,98589.38
2023-01-13T16:51:25.643Z,98567.56
2023-01-13T16:53:54.164Z,98553.66
2023-01-13T16:56:27.526Z,98592.38
2023-01-13T16:58:57.898Z,98613.53
2023-01-13T17:01:27.974Z,98570.38
2023-01-13T17:03:56.747Z,98591.75
2023-01-13T17:06:30.112Z,98594.13
2023-01-13T17:09:01.636Z,98632.97
2023-01-13T17:11:29.519Z,98649.88
2023-01-13T17:13:57.608Z,98679.47
2023-01-13T17:16:26.144Z,98720.56
2023-01-13T17:18:54.545Z,98781.31
2023-01-13T17:21:22.541Z,98762.91
2023-01-13T17:23:51.774Z,98763.56
2023-01-13T17:26:29.209Z,98818.56
2023-01-13T17:28:57.273Z,98855.03
2023-01-13T17:31:25.137Z,98898.53
2023-01-13T17:33:53.226Z,98946.47
2023-01-13T17:36:21.284Z,98983.25
2023-01-13T17:38:49.251Z,98985.25
2023-01-13T17:41:18.747Z,99036.59
2023-01-13T17:43:46.523Z,99045.31
2023-01-13T17:46:19.169Z,99047.22
2023-01-13T17:48:47.241Z,99038.31
2023-01-13T17:51:16.995Z,99038.94
2023-01-13T17:53:45.533Z,99058.97
2023-01-13T17:56:15.454Z,99022.59
2023-01-13T17:58:45.481Z,99010.91
2023-01-13T18:01:16.881Z,99010.50
2023-01-13T18:03:45.168Z,99017.56
2023-01-13T18:06:17.819Z,99004.13
2023-01-13T18:08:46.765Z,98987.56
2023-01-13T18:11:14.978Z,99026.91
2023-01-13T18:13:44.188Z,99001.38
2023-01-13T18:16:14.734Z,98980.09
2023-01-13T18:18:44.955Z,98977.03
2023-01-13T18:21:36.873Z,98959.28
2023-01-13T18:24:22.799Z,98959.19
2023-01-13T18:27:08.156Z,98938.22
2023-01-13T18:29:37.328Z,98933.63
2023-01-13T18:32:07.620Z,98933.94
2023-01-13T18:34:35.781Z,98927.88
2023-01-13T18:37:03.630Z,98926.41
2023-01-13T18:39:31.765Z,98926.59
2023-01-13T18:42:16.784Z,98952.03
2023-01-13T18:44:45.982Z,98957.34
2023-01-13T18:47:13.860Z,98977.75
2023-01-13T18:49:41.710Z,98971.38
2023-01-13T18:52:09.589Z,98976.59
2023-01-13T18:54:37.420Z,98959.69
2023-01-13T18:57:05.939Z,98970.97
2023-01-13T18:59:34.653Z,98957.56
2023-01-13T19:02:09.358Z,98947.97
2023-01-13T19:04:37.239Z,98958.63
2023-01-13T19:07:05.099Z,98966.50
2023-01-13T19:09:33.033Z,98963.53
2023-01-13T19:12:01.218Z,98958.31
2023-01-13T19:14:37.279Z,98958.22
2023-01-13T19:17:09.685Z,98952.13
2023-01-13T19:19:42.260Z,98977.53
2023-01-13T19:22:10.607Z,99017.44
2023-01-13T19:24:41.766Z,99047.34
2023-01-13T19:27:09.951Z,99039.53
2023-01-13T19:29:37.897Z,99014.97
2023-01-13T19:32:18.595Z,99012.41
2023-01-13T19:34:47.837Z,99013.56
2023-01-13T19:37:15.845Z,98977.72
2023-01-13T19:39:44.180Z,98987.91
2023-01-13T19:42:29.867Z,99012.91
2023-01-13T19:45:15.397Z,99032.94
2023-01-13T19:47:45.520Z,99062.69
2023-01-13T19:50:14.160Z,99073.50
2023-01-13T19:52:42.706Z,99108.78
2023-01-13T19:55:12.278Z,99135.75
2023-01-13T19:57:40.978Z,99127.56
2023-01-13T20:00:11.079Z,99139.50
2023-01-13T20:02:44.759Z,99129.94
2023-01-13T20:05:18.030Z,99119.22
2023-01-13T20:07:46.023Z,99146.34
2023-01-13T20:10:13.977Z,99152.53
2023-01-13T20:12:42.890Z,99131.44
2023-01-13T20:15:11.632Z,99146.75
2023-01-13T20:17:40.658Z,99157.38
2023-01-13T20:20:09.940Z,99144.38
2023-01-13T20:22:39.977Z,99172.66
2023-01-13T20:25:08.514Z,99162.59
2023-01-13T20:27:36.904Z,99186.31
2023-01-13T20:30:05.431Z,99197.72
2023-01-13T20:32:33.318Z,99203.13
2023-01-13T20:35:01.282Z,99209.19
2023-01-13T20:37:29.152Z,99195.34
2023-01-13T20:40:01.414Z,99193.44
2023-01-13T20:42:29.130Z,99228.75
2023-01-13T20:44:57.015Z,99218.88
2023-01-13T20:47:24.921Z,99199.72
2023-01-13T20:49:53.384Z,99191.16
2023-01-13T20:52:21.578Z,99189.66
2023-01-13T20:54:49.934Z,99213.31
2023-01-13T20:57:19.255Z,99220.41
2023-01-13T20:59:47.203Z,99206.47
2023-01-13T21:02:17.262Z,99202.66
2023-01-13T21:04:45.502Z,99232.34
2023-01-13T21:07:13.666Z,99200.47
2023-01-13T21:09:41.672Z,99194.00
2023-01-13T21:12:26.923Z,99197.34
2023-01-13T21:15:13.493Z,99185.75
2023-01-13T21:17:58.922Z,99192.22
2023-01-13T21:20:26.860Z,99197.63
2023-01-13T21:22:54.745Z,99210.25
2023-01-13T21:25:22.681Z,99229.31
2023-01-13T21:27:50.665Z,99219.06
2023-01-13T21:30:20.331Z,99224.56
2023-01-13T21:32:48.379Z,99223.81
2023-01-13T21:35:16.385Z,99219.47
2023-01-13T21:37:45.024Z,99209.78
2023-01-13T21:40:15.244Z,99210.66
2023-01-13T21:43:00.764Z,99215.28
2023-01-13T21:45:52.855Z,99209.97
2023-01-13T21:48:20.843Z,99219.75
2023-01-13T21:50:48.623Z,99224.19
2023-01-13T21:53:16.361Z,99212.91
2023-01-13T21:55:44.165Z,99226.13
2023-01-13T21:58:15.474Z,99261.22
2023-01-13T22:00:46.286Z,99243.09
2023-01-13T22:03:18.567Z,99243.94
2023-01-13T22:05:47.154Z,99246.59
2023-01-13T22:08:15.127Z,99249.06
2023-01-13T22:10:57.459Z,99254.00
2023-01-13T22:13:47.537Z,99261.78
2023-01-13T22:16:17.240Z,99237.00
2023-01-13T22:18:45.097Z,99227.13
2023-01-13T22:21:13.024Z,99224.47
2023-01-13T22:23:40.831Z,99213.75
2023-01-13T22:26:09.161Z,99225.03
2023-01-13T22:28:42.814Z,99214.50
2023-01-13T22:31:12.237Z,99224.56
2023-01-13T22:33:42.431Z,99254.75
2023-01-13T22:36:11.113Z,99287.50
2023-01-13T22:38:39.001Z,99287.03
2023-01-13T22:41:09.268Z,99317.22
2023-01-13T22:43:38.403Z,99321.97
2023-01-13T22:46:08.183Z,99320.16
2023-01-13T22:48:36.498Z,99326.25
2023-01-13T22:51:11.047Z,99329.06
2023-01-13T22:53:39.433Z,99342.06
2023-01-13T22:56:08.151Z,99314.72
2023-01-13T22:58:35.959Z,99334.38
2023-01-13T23:04:05.351Z,99341.78
2023-01-13T23:06:36.777Z,99351.38
2023-01-13T23:09:05.102Z,99346.25
2023-01-13T23:11:33.051Z,99363.13
2023-01-13T23:14:03.444Z,99366.81
2023-01-13T23:16:33.373Z,99376.41
2023-01-13T23:19:01.268Z,99388.06
2023-01-13T23:21:31.789Z,99380.94
2023-01-13T23:24:01.281Z,99403.66
2023-01-13T23:26:30.196Z,99381.84
2023-01-13T23:29:02.535Z,99386.47
2023-01-13T23:31:30.957Z,99422.53
2023-01-13T23:33:58.980Z,99425.97
2023-01-13T23:36:28.189Z,99428.19
2023-01-13T23:38:58.149Z,99434.75
2023-01-13T23:41:29.308Z,99460.63
2023-01-13T23:43:58.973Z,99495.75
2023-01-13T23:46:27.798Z,99501.75
2023-01-13T23:48:56.467Z,99522.50
2023-01-13T23:51:26.116Z,99529.63
2023-01-13T23:53:54.131Z,99554.38
2023-01-13T23:56:24.133Z,99541.16
2023-01-13T23:58:53.701Z,99547.44
